Time;durP1;ratioP1;P1;durP2;ratioP2;P2;SDS_P1;SDS_P2;PMS_P1;PMS_P2;Temp;Humidity;BMP_temperature;BMP_pressure;BME280_temperature;BME280_humidity;BME280_pressure;Samples;Min_cycle;Max_cycle;Signal;HPM_P1;HPM_P2
2022/09/25 00:01:16;;;;;;;29.63;20.13;;;;;;;11.58;83.17;100331.63;3300948;87;99452;-89
2022/09/25 00:06:24;;;;;;;29.33;21.80;;;;;;;11.48;83.23;100322.14;3331272;87;31650;-89
2022/09/25 00:11:29;;;;;;;27.10;19.83;;;;;;;11.40;83.40;100321.11;3323054;87;99303;-89
2022/09/25 00:16:31;;;;;;;28.27;20.15;;;;;;;11.33;83.68;100312.81;3333980;85;33230;-89
2022/09/25 00:21:34;;;;;;;30.37;20.30;;;;;;;11.26;83.91;100312.74;3325644;87;99435;-89
2022/09/25 00:26:38;;;;;;;32.48;20.50;;;;;;;11.20;84.06;100308.77;3320740;87;33258;-89
2022/09/25 00:31:39;;;;;;;30.75;20.70;;;;;;;11.10;84.13;100300.65;3307174;87;99269;-89
2022/09/25 00:36:40;;;;;;;32.90;21.90;;;;;;;11.05;84.35;100305.70;3342851;87;31665;-89
2022/09/25 00:41:41;;;;;;;33.80;22.53;;;;;;;10.97;84.62;100303.48;3331074;87;99221;-90
2022/09/25 00:46:43;;;;;;;35.27;23.57;;;;;;;10.91;84.74;100296.76;3366754;85;32040;-89
2022/09/25 00:52:11;;;;;;;35.20;23.43;;;;;;;10.84;84.88;100292.58;3355127;87;99350;-90
2022/09/25 00:57:17;;;;;;;33.02;23.10;;;;;;;10.80;85.11;100289.61;3350637;87;31443;-89
2022/09/25 01:02:28;;;;;;;38.88;25.82;;;;;;;10.70;85.12;100276.55;3343014;87;99456;-89
2022/09/25 01:07:31;;;;;;;33.50;24.15;;;;;;;10.64;85.40;100276.09;3343610;87;33242;-90
2022/09/25 01:12:38;;;;;;;34.73;23.67;;;;;;;10.60;85.39;100277.24;3362398;85;99288;-90
2022/09/25 01:18:10;;;;;;;35.70;24.43;;;;;;;10.55;85.53;100276.22;3358874;85;33854;-90
2022/09/25 01:23:23;;;;;;;31.80;21.95;;;;;;;10.48;85.73;100277.54;3357132;86;99139;-89
2022/09/25 01:29:03;;;;;;;34.33;24.23;;;;;;;10.46;85.96;100280.66;3366093;86;32692;-89
2022/09/25 01:34:18;;;;;;;34.55;23.73;;;;;;;10.40;85.99;100284.94;3353335;86;99017;-89
2022/09/25 01:39:25;;;;;;;36.90;25.53;;;;;;;10.38;86.13;100284.53;3380791;85;35005;-89
2022/09/25 01:44:28;;;;;;;;;;;;;;;10.32;86.17;100281.12;3328972;85;98923;-89
2022/09/25 01:49:36;;;;;;;37.38;24.85;;;;;;;10.26;87.09;100275.76;3355072;86;33786;-89
2022/09/25 01:54:43;;;;;;;37.83;25.85;;;;;;;10.22;86.47;100276.30;3330454;86;99148;-89
2022/09/25 01:59:55;;;;;;;40.90;26.00;;;;;;;10.17;86.36;100282.94;3337683;86;26303;-89
2022/09/25 02:05:03;;;;;;;37.50;26.95;;;;;;;10.12;86.56;100283.85;3335357;86;98902;-89
2022/09/25 02:10:15;;;;;;;38.23;26.68;;;;;;;10.09;86.77;100290.12;3349127;86;33328;-89
2022/09/25 02:15:21;;;;;;;38.23;26.42;;;;;;;10.05;86.68;100287.91;3321036;87;98794;-89
2022/09/25 02:20:32;;;;;;;44.07;26.60;;;;;;;9.98;86.76;100287.81;3332086;87;26148;-89
2022/09/25 02:26:01;;;;;;;42.30;28.38;;;;;;;9.95;86.80;100287.17;3333801;86;98430;-89
2022/09/25 02:31:07;;;;;;;39.63;25.95;;;;;;;9.94;87.25;100291.09;3333678;86;33333;-90
2022/09/25 02:36:19;;;;;;;36.85;25.65;;;;;;;9.91;87.20;100289.89;3331135;86;98336;-89
2022/09/25 02:42:02;;;;;;;43.97;26.93;;;;;;;9.88;87.43;100286.50;3323904;87;102301;-89
2022/09/25 02:47:31;;;;;;;42.55;26.73;;;;;;;9.86;87.47;100288.08;3349507;85;33201;-89
2022/09/25 02:52:59;;;;;;;52.27;29.45;;;;;;;9.86;87.70;100282.58;3353715;87;98574;-89
2022/09/25 02:58:20;;;;;;;45.45;26.65;;;;;;;9.85;87.78;100277.65;3354181;87;33781;-89
2022/09/25 03:03:24;;;;;;;46.50;26.27;;;;;;;9.86;87.86;100285.33;3339679;87;98861;-89
2022/09/25 03:08:44;;;;;;;39.65;23.65;;;;;;;9.87;87.82;100278.66;3357946;85;32065;-89
2022/09/25 03:13:43;;;;;;;36.23;23.15;;;;;;;9.86;87.98;100278.45;3331000;85;98873;-89
2022/09/25 03:18:44;;;;;;;34.70;22.47;;;;;;;9.88;88.08;100269.23;3348039;87;31397;-89
2022/09/25 03:23:45;;;;;;;34.80;21.95;;;;;;;9.89;88.09;100269.44;3341881;87;98987;-89
2022/09/25 03:28:46;;;;;;;35.63;23.10;;;;;;;9.89;87.98;100261.19;3357690;87;31753;-89
2022/09/25 03:33:48;;;;;;;32.38;21.40;;;;;;;9.89;88.17;100269.44;3370969;87;98951;-89
2022/09/25 03:38:52;;;;;;;33.43;22.53;;;;;;;9.90;88.04;100260.82;3360100;85;32208;-89
2022/09/25 03:43:55;;;;;;;33.67;22.95;;;;;;;9.91;88.25;100259.66;3333302;87;99004;-90
2022/09/25 03:48:57;;;;;;;47.37;26.23;;;;;;;9.92;88.22;100250.83;3345098;85;31464;-89
2022/09/25 03:53:58;;;;;;;49.40;27.40;;;;;;;9.95;88.42;100251.44;3352434;87;98799;-90
2022/09/25 03:58:59;;;;;;;44.48;25.72;;;;;;;9.96;88.25;100249.69;3351883;87;34343;-89
2022/09/25 04:04:01;;;;;;;44.50;25.27;;;;;;;9.97;88.22;100238.90;3350086;85;98704;-89
2022/09/25 04:09:03;;;;;;;40.40;23.40;;;;;;;9.98;88.39;100245.20;3360262;85;33349;-89
2022/09/25 04:14:04;;;;;;;45.10;26.27;;;;;;;10.00;88.24;100246.98;3350427;87;98781;-89
2022/09/25 04:19:05;;;;;;;43.33;23.12;;;;;;;10.01;88.49;100244.43;3361652;86;32749;-89
2022/09/25 04:29:26;;;;;;;35.50;23.35;;;;;;;10.07;88.51;100249.81;3372740;85;33767;-89
2022/09/25 04:34:27;;;;;;;32.58;21.68;;;;;;;10.06;88.37;100253.74;3364354;86;98944;-88
2022/09/25 04:39:28;;;;;;;32.10;21.10;;;;;;;10.07;88.36;100257.50;3350647;87;31705;-90
2022/09/25 04:44:29;;;;;;;32.50;20.67;;;;;;;10.08;88.47;100265.95;3363556;86;98621;-89
2022/09/25 04:49:30;;;;;;;31.57;19.33;;;;;;;10.11;88.57;100258.91;3355260;87;31668;-89
2022/09/25 04:54:31;;;;;;;30.13;18.73;;;;;;;10.12;88.36;100264.60;3339420;87;98577;-89
2022/09/25 04:59:33;;;;;;;25.03;16.93;;;;;;;10.13;88.60;100260.68;3361484;86;31696;-89
2022/09/25 05:04:34;;;;;;;26.77;17.00;;;;;;;10.14;88.27;100260.31;3330593;87;98954;-90
2022/09/25 05:09:36;;;;;;;27.30;16.20;;;;;;;10.15;88.51;100259.73;3334849;87;31602;-90
2022/09/25 05:14:39;;;;;;;24.17;15.10;;;;;;;10.17;88.44;100258.19;3330180;87;98543;-89
2022/09/25 05:19:39;;;;;;;24.53;14.97;;;;;;;10.19;88.40;100257.22;3340191;86;31804;-90
2022/09/25 05:24:41;;;;;;;21.73;13.57;;;;;;;10.23;88.40;100266.88;3340900;87;98782;-89
2022/09/25 05:29:41;;;;;;;22.23;14.93;;;;;;;10.27;88.49;100262.20;3311960;87;25889;-89
2022/09/25 05:34:43;;;;;;;21.67;13.10;;;;;;;10.31;88.30;100260.29;3339989;86;99026;-89
2022/09/25 05:39:44;;;;;;;17.87;13.20;;;;;;;10.35;88.42;100272.13;3335304;87;31692;-89
2022/09/25 05:44:45;;;;;;;21.27;13.63;;;;;;;10.42;88.35;100267.45;3334150;87;98692;-89
2022/09/25 05:49:46;;;;;;;21.33;12.97;;;;;;;10.48;88.29;100268.67;3328713;87;31650;-89
2022/09/25 05:54:47;;;;;;;19.60;12.27;;;;;;;10.57;88.17;100270.53;3338361;86;98811;-89
2022/09/25 05:59:48;;;;;;;23.97;15.13;;;;;;;10.67;88.42;100271.79;3344401;86;31739;-89
2022/09/25 06:04:50;;;;;;;23.33;14.67;;;;;;;10.77;88.77;100272.46;3336409;87;99076;-90
2022/09/25 06:09:51;;;;;;;21.30;15.20;;;;;;;10.89;89.15;100266.64;3354401;87;31649;-90
2022/09/25 06:14:51;;;;;;;28.50;19.60;;;;;;;10.98;89.08;100257.48;3342673;86;98765;-90
2022/09/25 06:19:52;;;;;;;28.80;17.30;;;;;;;11.10;89.82;100251.07;3349089;87;31628;-90
2022/09/25 06:24:53;;;;;;;33.55;21.30;;;;;;;11.19;89.50;100250.16;3348284;86;98686;-90
2022/09/25 06:29:54;;;;;;;27.50;17.77;;;;;;;11.31;89.36;100255.33;3348386;86;25825;-90
2022/09/25 06:34:55;;;;;;;20.97;15.87;;;;;;;11.43;88.81;100259.12;3353151;86;98808;-90
2022/09/25 06:39:56;;;;;;;23.70;16.73;;;;;;;11.52;88.63;100264.28;3352320;86;26545;-90
2022/09/25 06:44:57;;;;;;;25.63;18.03;;;;;;;11.62;88.83;100255.30;3340623;86;98910;-90
2022/09/25 06:49:58;;;;;;;26.80;21.07;;;;;;;11.72;88.77;100261.45;3345411;87;34929;-90
2022/09/25 06:54:59;;;;;;;25.47;19.23;;;;;;;11.86;88.96;100256.77;3338461;87;98724;-90
2022/09/25 07:00:01;;;;;;;25.30;17.93;;;;;;;12.05;89.12;100261.93;3339336;87;34876;-90
2022/09/25 07:05:02;;;;;;;29.43;20.97;;;;;;;12.24;89.41;100259.41;3322365;87;98741;-90
2022/09/25 07:10:04;;;;;;;32.63;23.77;;;;;;;12.41;89.41;100258.06;3340975;87;33056;-90
2022/09/25 07:15:06;;;;;;;36.83;26.40;;;;;;;12.63;89.44;100259.64;3339310;87;98952;-90
2022/09/25 07:20:11;;;;;;;35.27;25.60;;;;;;;12.86;89.29;100256.48;3344169;87;25870;-87
2022/09/25 07:25:12;;;;;;;33.42;24.77;;;;;;;13.09;89.26;100249.36;3330152;87;99288;-89
2022/09/25 07:30:13;;;;;;;30.62;21.15;;;;;;;13.37;88.57;100258.19;3354731;87;31650;-89
2022/09/25 07:35:14;;;;;;;22.33;15.80;;;;;;;13.60;87.71;100255.73;3341726;87;98980;-88
2022/09/25 07:40:15;;;;;;;21.67;14.13;;;;;;;13.78;86.05;100254.47;3347842;85;28040;-89
2022/09/25 07:45:16;;;;;;;20.77;14.80;;;;;;;13.98;85.25;100259.70;3354240;85;98766;-89
2022/09/25 07:50:17;;;;;;;23.77;15.30;;;;;;;14.14;84.15;100257.24;3336386;87;36135;-89
2022/09/25 07:55:19;;;;;;;21.53;15.07;;;;;;;14.31;82.85;100249.45;3325640;86;98866;-89
2022/09/25 08:00:20;;;;;;;18.43;13.87;;;;;;;14.45;81.15;100252.10;3338436;86;26548;-89
2022/09/25 08:05:21;;;;;;;20.53;14.93;;;;;;;14.78;81.95;100251.43;3334829;86;99252;-90
2022/09/25 08:10:22;;;;;;;21.60;14.23;;;;;;;15.02;80.86;100249.63;3318140;87;25858;-90
2022/09/25 08:15:24;;;;;;;20.47;14.60;;;;;;;15.11;79.17;100252.14;3342135;86;98739;-89
2022/09/25 08:20:25;;;;;;;21.17;14.80;;;;;;;15.34;80.32;100234.88;3331258;86;26113;-90
2022/09/25 08:25:26;;;;;;;19.00;13.57;;;;;;;15.54;79.11;100235.84;3326171;87;98996;-89
2022/09/25 08:30:28;;;;;;;17.97;11.77;;;;;;;15.69;77.52;100235.85;3343266;87;26660;-89
2022/09/25 08:35:29;;;;;;;14.73;10.73;;;;;;;15.74;75.95;100234.78;3331961;86;98739;-90
2022/09/25 08:40:31;;;;;;;17.23;10.70;;;;;;;15.86;75.47;100234.21;3312270;86;35575;-90
2022/09/25 08:50:56;;;;;;;17.35;11.45;;;;;;;16.30;76.77;100227.03;3322553;87;32410;-89
2022/09/25 08:56:14;;;;;;;17.40;11.80;;;;;;;16.45;75.11;100229.04;3315147;87;98709;-89
2022/09/25 09:01:23;;;;;;;18.77;11.63;;;;;;;16.59;75.27;100239.31;3314835;87;98923;-88
2022/09/25 09:06:27;;;;;;;19.30;12.05;;;;;;;16.82;74.46;100228.79;3338700;87;32242;-88
2022/09/25 09:11:45;;;;;;;17.12;11.85;;;;;;;16.96;73.66;100229.31;3303758;87;98902;-87
2022/09/25 09:17:03;;;;;;;20.20;12.60;;;;;;;16.92;73.33;100225.84;3352417;86;31820;-86
2022/09/25 09:22:11;;;;;;;18.10;13.03;;;;;;;17.04;73.77;100218.86;3321558;87;98986;-86
2022/09/25 09:27:37;;;;;;;23.40;14.10;;;;;;;17.16;73.69;100224.59;3340109;87;32035;-87
2022/09/25 09:33:14;;;;;;;21.70;14.23;;;;;;;17.23;72.74;100220.27;3322239;87;99047;-86
2022/09/25 09:38:35;;;;;;;19.48;13.78;;;;;;;17.35;72.99;100217.47;3327120;87;26542;-86
2022/09/25 09:44:17;;;;;;;20.88;15.40;;;;;;;17.39;71.88;100205.71;3321206;87;98869;-88
2022/09/25 09:49:32;;;;;;;20.95;15.48;;;;;;;17.44;71.06;100200.42;3311920;87;31979;-87
2022/09/25 09:54:44;;;;;;;21.50;16.52;;;;;;;17.57;71.77;100198.58;3322339;87;99304;-87
2022/09/25 09:59:56;;;;;;;20.17;15.03;;;;;;;17.62;71.14;100197.27;3319793;87;32973;-85
2022/09/25 10:05:02;;;;;;;21.35;15.28;;;;;;;17.85;70.71;100192.39;3322447;86;99124;-86
2022/09/25 10:10:15;;;;;;;20.10;13.85;;;;;;;17.96;70.40;100197.70;3304503;87;26781;-86
2022/09/25 10:15:33;;;;;;;18.75;13.98;;;;;;;18.13;69.61;100170.05;3309372;87;99303;-86
2022/09/25 10:20:52;;;;;;;21.40;13.20;;;;;;;18.28;68.70;100188.01;3326421;87;31780;-86
2022/09/25 10:25:53;;;;;;;17.50;12.03;;;;;;;18.40;66.60;100185.35;3320596;87;98996;-86
2022/09/25 10:30:56;;;;;;;17.37;12.55;;;;;;;18.37;67.25;100177.08;3322088;87;29793;-86
2022/09/25 10:35:58;;;;;;;16.85;10.80;;;;;;;18.47;66.48;100175.41;3316797;86;98991;-87
2022/09/25 10:41:07;;;;;;;17.37;11.08;;;;;;;18.32;65.81;100167.85;3331307;87;30410;-86
2022/09/25 10:46:14;;;;;;;16.90;12.00;;;;;;;18.45;66.61;100171.50;3329529;86;98717;-84
2022/09/25 10:51:20;;;;;;;16.10;11.55;;;;;;;18.59;66.31;100164.19;3327489;85;99350;-86
2022/09/25 10:56:37;;;;;;;19.30;11.20;;;;;;;18.81;66.25;100154.80;3343201;86;25951;-86
2022/09/25 11:01:37;;;;;;;13.75;9.33;;;;;;;19.17;66.23;100151.23;3334116;85;98951;-87
2022/09/25 11:06:45;;;;;;;19.73;10.87;;;;;;;19.69;64.97;100147.54;3319107;87;34920;-86
2022/09/25 11:11:49;;;;;;;16.97;10.58;;;;;;;20.12;63.90;100143.59;3341225;87;98833;-86
2022/09/25 11:16:54;;;;;;;16.05;10.20;;;;;;;20.40;61.78;100140.49;3348971;86;33123;-87
2022/09/25 11:22:18;;;;;;;13.20;8.60;;;;;;;20.58;59.59;100132.28;3353979;85;98895;-87
2022/09/25 11:27:44;;;;;;;12.73;7.58;;;;;;;20.88;59.92;100135.83;3352596;87;31669;-85
2022/09/25 11:33:06;;;;;;;13.53;8.83;;;;;;;21.02;57.96;100125.55;3357476;85;98719;-84
2022/09/25 11:38:15;;;;;;;14.53;9.25;;;;;;;21.26;57.20;100126.03;3355061;85;32825;-84
2022/09/25 11:43:24;;;;;;;13.95;8.68;;;;;;;21.19;55.18;100128.34;3347220;85;99225;-85
2022/09/25 11:48:43;;;;;;;14.45;8.45;;;;;;;20.98;55.18;100115.89;3363240;85;31673;-86
2022/09/25 11:54:20;;;;;;;12.05;8.25;;;;;;;21.15;54.70;100114.45;3316676;87;98853;-86
2022/09/25 11:59:48;;;;;;;12.47;7.72;;;;;;;21.41;54.95;100108.11;3363983;86;32941;-86
2022/09/25 12:05:13;;;;;;;11.93;7.62;;;;;;;21.65;54.89;100103.56;3226621;89;98852;-86
2022/09/25 12:10:22;;;;;;;12.95;9.10;;;;;;;21.75;54.39;100090.55;3325730;85;31675;-85
2022/09/25 12:15:59;;;;;;;13.38;8.00;;;;;;;21.71;54.12;100080.74;3351285;85;98504;-85
2022/09/25 12:21:14;;;;;;;11.53;7.28;;;;;;;21.58;53.82;100078.64;3362655;87;32248;-85
2022/09/25 12:26:30;;;;;;;12.13;8.28;;;;;;;21.55;53.80;100076.75;3367430;85;26023;-86
2022/09/25 12:32:04;;;;;;;11.95;7.75;;;;;;;21.46;53.24;100078.09;3359802;85;99124;-86
2022/09/25 12:37:42;;;;;;;11.60;7.15;;;;;;;21.66;52.91;100073.70;3372482;85;31745;-85
2022/09/25 12:43:06;;;;;;;11.83;6.72;;;;;;;21.41;51.12;100064.72;3344748;85;99026;-85
2022/09/25 12:48:34;;;;;;;9.87;5.80;;;;;;;21.13;52.22;100063.77;3374909;85;26944;-85
2022/09/25 12:53:49;;;;;;;9.78;6.47;;;;;;;21.23;52.83;100058.39;3325416;86;98521;-86
2022/09/25 12:58:58;;;;;;;13.00;6.15;;;;;;;21.23;52.86;100058.99;3331845;86;31803;-85
2022/09/25 13:04:50;;;;;;;12.85;6.15;;;;;;;21.22;51.92;100052.64;3324857;87;98914;-85
2022/09/25 13:09:51;;;;;;;9.93;5.67;;;;;;;21.26;51.85;100051.09;3328314;87;32297;-85
2022/09/25 13:14:57;;;;;;;8.88;5.15;;;;;;;21.26;51.88;100049.06;3328858;86;98662;-85
2022/09/25 13:20:30;;;;;;;10.98;6.12;;;;;;;21.44;53.62;100039.38;3335181;86;31822;-85
2022/09/25 13:25:49;;;;;;;8.78;5.40;;;;;;;21.43;52.41;100042.02;3331672;87;98826;-84
2022/09/25 13:31:12;;;;;;;9.68;5.90;;;;;;;21.51;52.46;100043.89;3344771;86;31769;-85
2022/09/25 13:36:24;;;;;;;9.53;5.50;;;;;;;21.48;53.26;100039.99;3342768;86;31675;-85
2022/09/25 13:41:28;;;;;;;11.65;5.97;;;;;;;21.47;53.38;100039.84;3335314;86;98568;-85
2022/09/25 13:46:32;;;;;;;9.10;5.17;;;;;;;21.43;50.88;100031.42;3340943;86;45757;-84
2022/09/25 13:51:35;;;;;;;9.90;6.62;;;;;;;21.43;51.13;100033.63;3345836;85;98929;-84
2022/09/25 13:56:47;;;;;;;12.58;5.58;;;;;;;21.37;49.97;100024.87;3368291;86;32012;-85
2022/09/25 14:01:55;;;;;;;8.63;5.00;;;;;;;21.29;50.66;100020.16;3334953;87;98933;-86
2022/09/25 14:07:11;;;;;;;8.68;5.05;;;;;;;21.18;50.55;100019.00;3347857;87;32391;-86
2022/09/25 14:12:24;;;;;;;7.62;4.25;;;;;;;21.06;50.82;100010.08;3326551;85;98715;-85
2022/09/25 14:17:30;;;;;;;11.12;6.22;;;;;;;21.00;52.83;100005.71;3352269;85;31714;-86
2022/09/25 14:22:52;;;;;;;8.23;5.08;;;;;;;20.86;53.18;100006.80;3345778;87;99183;-86
2022/09/25 14:27:54;;;;;;;9.18;5.35;;;;;;;20.68;50.95;100008.09;3355910;85;32284;-84
2022/09/25 14:33:21;;;;;;;7.95;4.97;;;;;;;20.48;50.84;100005.61;3349123;85;98775;-83
2022/09/25 14:38:35;;;;;;;8.15;3.65;;;;;;;20.39;50.24;100006.92;3344350;85;31666;-85
2022/09/25 14:44:02;;;;;;;7.40;3.90;;;;;;;20.18;50.14;99990.14;3329907;85;98950;-86
2022/09/25 14:49:37;;;;;;;6.72;3.85;;;;;;;19.95;49.69;99991.27;3355568;85;31719;-86
2022/09/25 14:54:43;;;;;;;7.33;3.55;;;;;;;19.79;49.53;99989.26;3331832;85;98323;-85
2022/09/25 14:59:49;;;;;;;5.78;3.50;;;;;;;19.62;50.43;99976.03;3349012;86;26557;-84
2022/09/25 15:04:51;;;;;;;5.60;3.17;;;;;;;19.42;50.28;99976.11;3335951;85;98321;-86
2022/09/25 15:09:54;;;;;;;6.78;3.67;;;;;;;19.25;52.27;99972.67;3350649;86;31736;-86
2022/09/25 15:15:11;;;;;;;5.40;3.20;;;;;;;19.17;51.79;99969.09;3340759;87;98600;-86
2022/09/25 15:20:19;;;;;;;5.85;3.35;;;;;;;19.05;53.60;99962.91;3354687;87;32370;-86
2022/09/25 15:25:26;;;;;;;5.78;3.62;;;;;;;18.78;54.25;99962.53;3343798;85;98493;-86
2022/09/25 15:30:29;;;;;;;5.83;3.10;;;;;;;18.55;54.93;99963.61;3345936;87;31628;-86
2022/09/25 15:35:31;;;;;;;6.22;3.75;;;;;;;18.38;55.56;99955.73;3355340;85;98097;-86
2022/09/25 15:40:32;;;;;;;10.03;4.95;;;;;;;18.18;57.06;99956.45;3369893;85;31645;-86
2022/09/25 15:45:41;;;;;;;10.40;4.20;;;;;;;18.06;58.13;99960.77;3352088;86;98457;-86
2022/09/25 15:50:44;;;;;;;7.92;4.45;;;;;;;17.87;58.76;99953.94;3362979;85;32360;-87
2022/09/25 15:55:45;;;;;;;8.55;4.33;;;;;;;17.66;59.04;99947.52;3342696;85;98126;-87
2022/09/25 16:06:20;;;;;;;7.33;4.28;;;;;;;17.37;61.48;99941.03;3351083;85;31640;-87
2022/09/25 16:11:25;;;;;;;10.53;6.73;;;;;;;17.21;62.30;99939.03;3347947;87;98726;-87
2022/09/25 16:16:28;;;;;;;11.05;7.03;;;;;;;17.03;62.65;99941.45;3357762;85;31768;-87
2022/09/25 16:21:36;;;;;;;10.80;6.85;;;;;;;16.89;62.93;99939.59;3328474;86;98858;-87
2022/09/25 16:26:40;;;;;;;10.87;7.43;;;;;;;16.76;63.34;99935.30;3353578;87;34920;-86
2022/09/25 16:31:43;;;;;;;11.28;7.28;;;;;;;16.61;63.65;99930.46;3364736;85;98747;-87
2022/09/25 16:36:47;;;;;;;14.03;9.23;;;;;;;16.44;64.23;99932.41;3365023;85;31657;-87
2022/09/25 16:41:49;;;;;;;13.93;8.67;;;;;;;16.30;64.96;99926.34;3328691;87;98608;-86
2022/09/25 16:47:01;;;;;;;13.95;8.50;;;;;;;16.16;65.23;99936.32;3352761;85;31768;-87
2022/09/25 16:52:07;;;;;;;13.88;8.30;;;;;;;16.00;65.64;99939.00;3343859;86;98623;-87
2022/09/25 16:57:12;;;;;;;11.77;8.00;;;;;;;15.86;66.16;99934.50;3356952;86;26484;-87
2022/09/25 17:02:31;;;;;;;12.90;8.38;;;;;;;15.70;66.37;99930.23;3339017;86;98826;-87
2022/09/25 17:07:31;;;;;;;13.72;7.67;;;;;;;15.56;67.02;99929.11;3347741;86;30797;-87
2022/09/25 17:12:33;;;;;;;12.20;7.70;;;;;;;15.41;67.26;99924.99;3330069;86;98778;-87
2022/09/25 17:17:34;;;;;;;10.97;7.20;;;;;;;15.26;67.35;99908.37;3327140;86;28877;-87
2022/09/25 17:22:34;;;;;;;13.00;8.43;;;;;;;15.14;67.84;99909.55;3310086;87;98927;-88
2022/09/25 17:27:35;;;;;;;19.67;10.17;;;;;;;15.00;68.15;99910.55;3308196;87;25879;-88
2022/09/25 17:32:37;;;;;;;15.68;9.83;;;;;;;14.79;68.48;99893.47;3325173;86;98755;-88
2022/09/25 17:37:38;;;;;;;16.43;10.97;;;;;;;14.79;68.48;99893.47;3327307;87;26257;-87
2022/09/25 17:42:39;;;;;;;15.60;9.37;;;;;;;14.69;68.03;99895.20;3331623;86;99388;-85
2022/09/25 17:47:40;;;;;;;15.77;9.50;;;;;;;14.60;68.21;99899.69;3333228;86;35430;-87
2022/09/25 17:52:42;;;;;;;14.03;8.27;;;;;;;14.52;67.78;99906.51;3326581;86;98724;-88
2022/09/25 17:57:43;;;;;;;16.30;9.53;;;;;;;14.46;68.51;99901.25;3326891;86;35982;-87
2022/09/25 18:02:44;;;;;;;16.23;9.80;;;;;;;14.41;68.42;99903.09;3287476;86;98990;-87
2022/09/25 18:07:45;;;;;;;18.77;10.23;;;;;;;14.36;68.61;99902.97;3306343;87;35384;-87
2022/09/25 18:12:46;;;;;;;21.67;12.53;;;;;;;14.35;68.56;99907.52;3313544;86;99177;-87
2022/09/25 18:17:47;;;;;;;18.77;11.80;;;;;;;14.33;69.03;99905.16;3308382;86;36210;-87
2022/09/25 18:22:48;;;;;;;16.53;9.33;;;;;;;14.32;69.23;99906.95;3303242;86;99286;-87
2022/09/25 18:27:49;;;;;;;14.10;7.95;;;;;;;14.31;69.65;99898.47;3320296;87;35485;-87
2022/09/25 18:32:51;;;;;;;12.40;7.80;;;;;;;14.29;69.81;99895.34;3327106;86;98883;-87
2022/09/25 18:37:52;;;;;;;14.70;8.78;;;;;;;14.27;70.10;99905.44;3351366;86;35401;-87
2022/09/25 18:42:53;;;;;;;24.47;15.40;;;;;;;14.26;70.67;99901.70;3319955;86;98604;-87
2022/09/25 18:47:54;;;;;;;23.70;13.85;;;;;;;14.23;71.25;99894.23;3345658;86;32959;-87
2022/09/25 18:52:55;;;;;;;23.57;15.23;;;;;;;14.21;71.27;99891.08;3329548;87;99103;-86
2022/09/25 18:57:58;;;;;;;21.20;13.37;;;;;;;14.17;71.43;99895.86;3338750;87;30171;-86
2022/09/25 19:02:59;;;;;;;20.97;13.00;;;;;;;14.11;71.73;99898.28;3331570;86;98915;-86
2022/09/25 19:08:02;;;;;;;22.30;13.50;;;;;;;14.04;71.90;99887.89;3322215;86;32109;-86
2022/09/25 19:13:03;;;;;;;35.10;19.65;;;;;;;13.97;72.33;99895.70;3318606;87;98745;-87
2022/09/25 19:18:05;;;;;;;39.33;23.67;;;;;;;13.89;72.56;99893.42;3333727;86;28670;-87
2022/09/25 19:23:06;;;;;;;27.22;16.87;;;;;;;13.81;72.80;99885.80;3315832;87;98729;-87
2022/09/25 19:28:07;;;;;;;25.55;16.35;;;;;;;13.71;73.30;99886.69;3329647;87;34865;-87
2022/09/25 19:33:08;;;;;;;25.43;15.50;;;;;;;13.63;73.38;99885.78;3310644;87;98808;-87
2022/09/25 19:38:09;;;;;;;24.83;15.73;;;;;;;13.54;73.92;99880.73;3325047;87;26933;-87
2022/09/25 19:43:10;;;;;;;39.10;24.70;;;;;;;13.46;74.23;99888.13;3316412;87;99122;-87
2022/09/25 19:48:11;;;;;;;38.20;22.33;;;;;;;13.36;74.81;99884.23;3288085;87;26671;-87
2022/09/25 19:53:13;;;;;;;33.03;18.17;;;;;;;13.30;74.93;99878.20;3313740;87;99155;-89
2022/09/25 19:58:14;;;;;;;30.80;19.83;;;;;;;13.22;75.11;99875.30;3336689;86;26263;-89
2022/09/25 20:03:15;;;;;;;27.53;16.50;;;;;;;13.15;75.34;99875.36;3320057;87;98662;-89
2022/09/25 20:08:19;;;;;;;25.37;15.20;;;;;;;13.10;75.51;99878.55;3317625;86;25911;-89
2022/09/25 20:13:20;;;;;;;21.42;14.80;;;;;;;13.05;75.73;99882.55;3334685;86;99154;-89
2022/09/25 20:18:22;;;;;;;21.50;14.47;;;;;;;13.01;75.75;99880.98;3355916;87;30149;-89
2022/09/25 20:23:23;;;;;;;24.05;15.60;;;;;;;12.98;75.97;99878.44;3313175;87;99067;-89
2022/09/25 20:28:24;;;;;;;20.47;14.73;;;;;;;12.94;76.08;99876.28;3334761;87;26194;-90
2022/09/25 20:33:28;;;;;;;23.07;15.80;;;;;;;12.94;76.28;99875.48;3315160;87;99034;-89
2022/09/25 20:38:29;;;;;;;27.25;18.85;;;;;;;12.91;76.47;99863.89;3339607;86;35413;-90
2022/09/25 20:43:30;;;;;;;29.40;18.43;;;;;;;12.91;76.47;99863.89;3335591;87;98892;-90
2022/09/25 20:48:36;;;;;;;30.40;18.00;;;;;;;12.90;76.66;99860.91;3335182;87;28691;-89
2022/09/25 20:53:38;;;;;;;26.00;15.77;;;;;;;12.90;77.03;99861.71;3323453;87;99162;-90
2022/09/25 20:58:43;;;;;;;25.92;15.70;;;;;;;12.90;76.86;99855.39;3331836;87;35614;-89
2022/09/25 21:03:46;;;;;;;26.27;17.00;;;;;;;12.91;76.82;99845.94;3330085;87;98953;-90
2022/09/25 21:08:53;;;;;;;26.60;18.70;;;;;;;12.89;76.99;99846.34;3347131;86;34829;-90
2022/09/25 21:13:57;;;;;;;25.45;17.07;;;;;;;12.89;77.05;99840.02;3341383;87;99548;-90
2022/09/25 21:19:02;;;;;;;27.67;19.12;;;;;;;12.89;77.25;99835.29;3337850;86;35410;-90
2022/09/25 21:24:04;;;;;;;31.73;20.88;;;;;;;12.90;77.27;99834.09;3325728;87;99161;-89
2022/09/25 21:29:05;;;;;;;32.13;21.10;;;;;;;12.91;77.03;99828.75;3335538;86;33732;-90
2022/09/25 21:34:11;;;;;;;29.27;19.97;;;;;;;12.76;76.84;99803.81;3321912;87;99133;-90
2022/09/25 21:39:12;;;;;;;26.17;18.63;;;;;;;12.90;77.44;99818.10;3336886;87;26000;-90
2022/09/25 21:44:17;;;;;;;30.70;20.80;;;;;;;12.92;77.63;99806.84;3331433;87;99118;-89
2022/09/25 21:49:20;;;;;;;30.23;20.17;;;;;;;12.94;77.54;99804.48;3313364;86;34794;-90
2022/09/25 21:54:21;;;;;;;56.18;33.38;;;;;;;12.96;77.60;99794.41;3324920;86;99407;-89
2022/09/25 21:59:22;;;;;;;60.00;37.00;;;;;;;12.85;77.67;99764.10;3331807;87;29676;-90
2022/09/25 22:04:23;;;;;;;56.93;33.50;;;;;;;12.98;77.68;99781.76;3323051;87;99034;-90
2022/09/25 22:09:26;;;;;;;34.07;23.00;;;;;;;12.99;77.69;99772.30;3335024;86;29104;-90
2022/09/25 22:14:27;;;;;;;29.55;20.02;;;;;;;12.99;77.64;99775.06;3318177;87;98767;-90
2022/09/25 22:19:29;;;;;;;30.07;19.87;;;;;;;13.00;77.55;99767.55;3344481;86;32022;-90
2022/09/25 22:24:30;;;;;;;28.85;18.00;;;;;;;13.02;77.74;99767.94;3303619;87;98889;-91
2022/09/25 22:29:32;;;;;;;28.30;19.10;;;;;;;13.02;77.74;99764.56;3329695;86;32178;-90
2022/09/25 22:34:33;;;;;;;30.20;19.70;;;;;;;13.02;77.63;99765.95;3338835;85;98822;-89
2022/09/25 22:39:34;;;;;;;28.73;19.77;;;;;;;12.99;77.37;99760.46;3364416;86;30633;-90
2022/09/25 22:44:35;;;;;;;30.00;18.67;;;;;;;12.98;77.19;99758.28;3345580;86;98832;-89
2022/09/25 22:49:36;;;;;;;27.37;18.90;;;;;;;12.96;77.18;99748.25;3342652;87;27160;-90
2022/09/25 22:54:37;;;;;;;27.50;18.57;;;;;;;12.95;77.16;99748.03;3344354;86;98591;-90
2022/09/25 22:59:38;;;;;;;24.50;16.73;;;;;;;12.96;77.31;99738.58;3335242;87;26499;-90
2022/09/25 23:04:39;;;;;;;23.70;16.97;;;;;;;12.96;77.31;99724.77;3342113;86;98747;-90
2022/09/25 23:09:42;;;;;;;24.07;16.27;;;;;;;12.98;77.34;99721.61;3368339;85;32974;-90
2022/09/25 23:14:43;;;;;;;24.82;18.35;;;;;;;12.99;77.41;99726.73;3328844;86;99130;-89
2022/09/25 23:19:44;;;;;;;25.47;18.10;;;;;;;12.98;77.42;99725.14;3344830;86;26502;-88
2022/09/25 23:24:44;;;;;;;25.03;18.23;;;;;;;13.00;77.40;99723.35;3344002;87;98547;-89
2022/09/25 23:29:45;;;;;;;29.00;19.90;;;;;;;12.98;77.45;99720.99;3352168;86;33112;-89
2022/09/25 23:34:46;;;;;;;30.67;21.00;;;;;;;12.98;77.29;99718.84;3338736;85;98760;-89
2022/09/25 23:39:47;;;;;;;26.40;18.67;;;;;;;12.96;77.47;99720.63;3323655;87;33054;-89
2022/09/25 23:44:48;;;;;;;29.13;18.93;;;;;;;12.92;77.77;99710.17;3339420;86;98843;-88